Aviation Digital Data Service (ADDS)

Output produced by METARs form (0132 UTC 29 November 2020)
found at http://www.aviationweather.gov/metar/data/
 
METAR text: KGYI 290115Z AUTO 00000KT 10SM RA SCT035 SCT050 OVC075 11/02 A3013 RMK AO2 P0001 T01130023
Conditions at: KGYI (SHERMAN/DENISON , TX, US) observed 0115 UTC 29 November 2020
Temperature: 11.3°C (52°F)
Dewpoint: 2.3°C (36°F) [RH = 54%]
Pressure (altimeter): 30.13 inches Hg (1020.4 mb)
Winds: calm
Visibility: 10 or more miles (16+ km)
Ceiling: 7500 feet AGL
Clouds: scattered clouds at 3500 feet AGL
scattered clouds at 5000 feet AGL
overcast cloud deck at 7500 feet AGL
Weather: RA  (moderate rain)